Laniel, Canada
Current Conditions -  °F | °C
As of 2:20 AM on Saturday 25 Oct 2014 (Local Time) from CYYB Reporting Station
Overcast Overcast  
Wind Chill: 41°   Ceiling: 400
Heat Index: 46°   Visibility: 7mi
Dew Point: 45°   Wind: 12mph
Humidity: 93%   Direction: 230°SW
Pressure: 29.77"   Gusts: NA
Location:  47.03°N, 79.27°W
Report Text: CYYB 250620Z AUTO 23010KT 7SM OVC004 08/07 A2977 RMK SLP090
Loading
Personal Weather Stations






























Interactive Weather Map
Tropical Storm Tracking
New forecast layout! Learn more

10-Day Weather Forecast

Advertisements
Track Severe Weather on mobile